Bayville, New Jersey
Current Conditions -  °F | °C
As of 11:15 AM on Thursday 29 Jan 2015 (Local Time) from KMJX Reporting Station
Clear Clear  
Wind Chill: 30°   Ceiling: Unl
Heat Index: 30°   Visibility: 10mi
Dew Point: 18°   Wind: 3mph
Humidity: 60%   Direction: 100°E
Pressure: 30.31"   Gusts: NA
Location:  39.91°N, 74.16°W
Report Text: KMJX 291615Z AUTO 10003KT 10SM CLR M01/M08 A3031 RMK AO1 P0001
Loading
Personal Weather Stations






























Interactive Weather Map New forecast layout! Learn more

10-Day Weather Forecast

Advertisements
Track Severe Weather on mobile